createdAt,value
2023-04-10T00:01:58.210Z,10.88
2023-04-10T00:05:59.928Z,12.40
2023-04-10T00:10:01.706Z,11.57
2023-04-10T00:14:03.422Z,11.68
2023-04-10T00:18:05.291Z,12.38
2023-04-10T00:22:07.041Z,10.73
2023-04-10T00:26:08.822Z,13.30
2023-04-10T00:30:10.900Z,10.88
2023-04-10T00:34:13.991Z,12.15
2023-04-10T00:38:15.723Z,13.07
2023-04-10T00:42:17.528Z,14.23
2023-04-10T00:46:19.642Z,15.23
2023-04-10T00:50:22.104Z,12.95
2023-04-10T00:54:23.909Z,13.83
2023-04-10T00:58:26.793Z,13.18
2023-04-10T01:02:28.657Z,16.23
2023-04-10T01:06:47.184Z,14.30
2023-04-10T01:11:10.383Z,13.85
2023-04-10T01:15:18.281Z,13.20
2023-04-10T01:19:56.252Z,15.57
2023-04-10T01:24:35.608Z,13.60
2023-04-10T01:28:47.071Z,15.05
2023-04-10T01:32:50.998Z,13.68
2023-04-10T01:37:01.592Z,12.82
2023-04-10T01:41:05.039Z,14.25
2023-04-10T01:45:09.198Z,12.73
2023-04-10T01:49:11.713Z,13.23
2023-04-10T01:53:14.584Z,14.10
2023-04-10T01:57:17.119Z,12.38
2023-04-10T02:01:29.108Z,12.82
2023-04-10T02:05:44.572Z,13.25
2023-04-10T02:10:21.381Z,14.57
2023-04-10T02:14:28.389Z,15.48
2023-04-10T02:18:31.514Z,15.60
2023-04-10T02:22:33.640Z,13.18
2023-04-10T02:26:49.424Z,11.95
2023-04-10T02:30:51.539Z,14.90
2023-04-10T02:34:53.325Z,13.85
2023-04-10T02:38:55.006Z,11.88
2023-04-10T02:42:57.099Z,13.52
2023-04-10T02:46:58.864Z,11.85
2023-04-10T02:51:00.627Z,12.77
2023-04-10T02:55:02.636Z,18.48
2023-04-10T02:59:04.319Z,11.68
2023-04-10T03:03:06.257Z,12.60
2023-04-10T03:07:07.977Z,12.80
2023-04-10T03:11:09.655Z,12.93
2023-04-10T03:15:12.825Z,12.93
2023-04-10T03:23:16.433Z,11.88
2023-04-10T03:27:18.129Z,10.45
2023-04-10T03:31:20.600Z,12.13
2023-04-10T03:35:22.541Z,13.38
2023-04-10T03:39:24.651Z,11.43
2023-04-10T03:43:26.344Z,13.02
2023-04-10T03:47:28.084Z,12.60
2023-04-10T03:51:29.961Z,11.70
2023-04-10T03:55:31.921Z,12.25
2023-04-10T03:59:38.816Z,11.45
2023-04-10T04:03:40.876Z,10.85
2023-04-10T04:07:42.876Z,10.77
2023-04-10T04:11:44.634Z,10.57
2023-04-10T04:15:47.774Z,15.75
2023-04-10T04:23:51.229Z,11.90
2023-04-10T04:27:52.911Z,10.90
2023-04-10T04:31:54.629Z,13.35
2023-04-10T04:35:57.859Z,11.80
2023-04-10T04:40:02.764Z,10.98
2023-04-10T04:44:05.703Z,16.10
2023-04-10T04:48:07.377Z,10.15
2023-04-10T04:52:09.301Z,12.45
2023-04-10T04:56:11.117Z,11.93
2023-04-10T05:00:13.201Z,16.15
2023-04-10T05:04:15.176Z,18.30
2023-04-10T05:08:17.025Z,13.00
2023-04-10T05:12:18.716Z,13.52
2023-04-10T05:16:20.488Z,14.02
2023-04-10T05:20:22.272Z,12.30
2023-04-10T05:24:24.294Z,12.32
2023-04-10T05:28:26.167Z,16.40
2023-04-10T05:32:27.869Z,11.00
2023-04-10T05:36:29.672Z,11.88
2023-04-10T05:40:31.434Z,13.45
2023-04-10T05:44:34.721Z,12.73
2023-04-10T05:48:36.466Z,11.45
2023-04-10T05:52:38.213Z,12.90
2023-04-10T05:56:40.085Z,15.05
2023-04-10T06:00:41.772Z,11.95
2023-04-10T06:04:43.522Z,13.68
2023-04-10T06:08:45.417Z,12.23
2023-04-10T06:12:47.066Z,12.10
2023-04-10T06:16:48.912Z,11.80
2023-04-10T06:20:50.708Z,13.05
2023-04-10T06:24:52.414Z,11.25
2023-04-10T06:28:54.507Z,11.52
2023-04-10T06:32:56.452Z,24.60
2023-04-10T06:36:58.148Z,12.80
2023-04-10T06:40:59.823Z,10.57
2023-04-10T06:45:02.246Z,10.48
2023-04-10T06:49:03.913Z,11.10
2023-04-10T06:53:05.704Z,8.88
2023-04-10T06:57:07.388Z,9.82
2023-04-10T07:01:09.166Z,13.98
2023-04-10T07:05:11.294Z,10.07
2023-04-10T07:09:12.977Z,9.48
2023-04-10T07:13:14.845Z,11.38
2023-04-10T07:17:16.521Z,8.27
2023-04-10T07:21:18.205Z,7.85
2023-04-10T07:25:19.912Z,8.60
2023-04-10T07:29:21.613Z,8.85
2023-04-10T07:33:23.320Z,8.13
2023-04-10T07:37:25.277Z,7.80
2023-04-10T07:41:27.214Z,8.48
2023-04-10T07:45:29.067Z,9.00
2023-04-10T07:49:35.484Z,9.82
2023-04-10T07:53:37.360Z,6.93
2023-04-10T07:57:40.622Z,7.45
2023-04-10T08:01:43.819Z,8.23
2023-04-10T08:05:45.597Z,8.30
2023-04-10T08:09:47.237Z,8.32
2023-04-10T08:13:49.336Z,5.65
2023-04-10T08:17:51.198Z,6.40
2023-04-10T08:21:52.912Z,7.65
2023-04-10T08:25:54.640Z,7.53
2023-04-10T08:29:56.705Z,5.63
2023-04-10T08:33:59.143Z,10.18
2023-04-10T08:38:12.291Z,8.38
2023-04-10T08:42:16.105Z,5.18
2023-04-10T08:46:17.810Z,7.95
2023-04-10T08:50:20.202Z,6.68
2023-04-10T08:54:27.582Z,6.43
2023-04-10T08:58:29.521Z,6.10
2023-04-10T09:02:31.577Z,7.07
2023-04-10T09:06:35.995Z,6.77
2023-04-10T09:10:38.237Z,8.30
2023-04-10T09:14:41.414Z,8.27
2023-04-10T09:18:50.688Z,5.70
2023-04-10T09:22:53.268Z,7.68
2023-04-10T09:26:55.709Z,6.30
2023-04-10T09:30:57.471Z,7.55
2023-04-10T09:34:59.373Z,8.82
2023-04-10T09:39:01.258Z,7.40
2023-04-10T09:43:17.756Z,5.25
2023-04-10T09:47:23.319Z,4.65
2023-04-10T09:51:30.252Z,4.55
2023-04-10T09:55:34.254Z,7.13
2023-04-10T09:59:38.806Z,5.32
2023-04-10T10:03:42.099Z,7.28
2023-04-10T10:07:45.412Z,5.28
2023-04-10T10:11:50.136Z,4.50
2023-04-10T10:16:25.625Z,4.43
2023-04-10T10:20:31.221Z,9.60
2023-04-10T10:24:34.336Z,4.68
2023-04-10T10:28:36.707Z,4.75
2023-04-10T10:32:39.814Z,3.80
2023-04-10T10:36:42.511Z,5.35
2023-04-10T10:41:28.545Z,4.10
2023-04-10T10:46:02.273Z,4.10
2023-04-10T10:50:04.383Z,3.47
2023-04-10T10:54:31.352Z,4.13
2023-04-10T10:58:49.363Z,4.47
2023-04-10T11:03:10.660Z,3.58
2023-04-10T11:07:13.510Z,4.20
2023-04-10T11:11:25.832Z,2.80
2023-04-10T11:15:28.549Z,2.90
2023-04-10T11:19:30.702Z,3.22
2023-04-10T11:23:32.822Z,3.83
2023-04-10T11:27:44.703Z,2.73
2023-04-10T11:31:55.535Z,2.90
2023-04-10T11:35:57.999Z,2.78
2023-04-10T11:40:06.836Z,4.80
2023-04-10T11:44:11.251Z,3.80
2023-04-10T11:48:12.902Z,2.83
2023-04-10T11:52:25.809Z,3.10
2023-04-10T11:56:27.747Z,3.53
2023-04-10T12:00:29.897Z,4.32
2023-04-10T12:04:31.829Z,4.20
2023-04-10T12:08:39.352Z,5.57
2023-04-10T12:12:41.920Z,3.92
2023-04-10T12:16:44.769Z,3.55
2023-04-10T12:24:53.468Z,3.90
2023-04-10T12:28:57.617Z,4.20
2023-04-10T12:33:03.808Z,4.25
2023-04-10T12:37:07.430Z,3.67
2023-04-10T12:41:11.338Z,4.05
2023-04-10T12:45:14.525Z,4.03
2023-04-10T12:49:17.364Z,6.57
2023-04-10T12:57:30.810Z,5.57
2023-04-10T13:01:33.710Z,7.45
2023-04-10T13:05:35.636Z,3.50
2023-04-10T13:09:37.431Z,4.20
2023-04-10T13:13:39.087Z,4.95
2023-04-10T13:17:41.662Z,2.80
2023-04-10T13:21:43.461Z,3.30
2023-04-10T13:25:45.401Z,3.72
2023-04-10T13:29:47.299Z,2.83
2023-04-10T13:33:49.077Z,3.38
2023-04-10T13:37:53.192Z,2.08
2023-04-10T13:41:54.903Z,2.65
2023-04-10T13:45:56.905Z,3.92
2023-04-10T13:49:58.678Z,5.07
2023-04-10T13:54:02.909Z,3.65
2023-04-10T13:58:04.955Z,3.70
2023-04-10T14:02:07.254Z,5.90
2023-04-10T14:06:09.879Z,3.83
2023-04-10T14:10:13.801Z,3.35
2023-04-10T14:14:15.694Z,4.25
2023-04-10T14:18:20.465Z,5.23
2023-04-10T14:22:23.245Z,8.80
2023-04-10T14:34:32.860Z,4.60
2023-04-10T14:38:36.641Z,4.45
2023-04-10T14:42:38.379Z,3.72
2023-04-10T14:46:40.118Z,9.93
2023-04-10T14:50:41.932Z,4.43
2023-04-10T14:54:43.608Z,3.92
2023-04-10T14:58:47.104Z,5.38
2023-04-10T15:02:49.034Z,3.92
2023-04-10T15:06:51.823Z,4.80
2023-04-10T15:10:57.882Z,3.10
2023-04-10T15:14:59.632Z,3.95
2023-04-10T15:19:01.326Z,6.07
2023-04-10T15:23:03.118Z,4.35
2023-04-10T15:27:04.910Z,4.15
2023-04-10T15:31:06.955Z,8.07
2023-04-10T15:35:08.911Z,4.07
2023-04-10T15:39:11.196Z,4.85
2023-04-10T15:43:13.349Z,8.40
2023-04-10T15:47:15.013Z,4.33
2023-04-10T15:51:16.774Z,5.22
2023-04-10T15:55:18.863Z,4.68
2023-04-10T15:59:20.625Z,5.23
2023-04-10T16:03:22.536Z,4.68
2023-04-10T16:07:24.601Z,3.80
2023-04-10T16:11:26.316Z,4.95
2023-04-10T16:15:28.527Z,4.97
2023-04-10T16:19:31.387Z,3.28
2023-04-10T16:27:34.728Z,3.03
2023-04-10T16:31:36.453Z,6.13
2023-04-10T16:35:38.149Z,4.85
2023-04-10T16:39:40.039Z,3.90
2023-04-10T16:43:41.673Z,4.95
2023-04-10T16:47:44.624Z,4.20
2023-04-10T16:51:46.362Z,4.35
2023-04-10T16:56:02.826Z,5.15
2023-04-10T17:00:06.846Z,4.53
2023-04-10T17:04:09.361Z,4.72
2023-04-10T17:08:11.072Z,4.38
2023-04-10T17:12:12.793Z,4.78
2023-04-10T17:16:15.450Z,5.47
2023-04-10T17:20:20.266Z,3.40
2023-04-10T17:24:25.473Z,4.72
2023-04-10T17:28:27.140Z,4.47
2023-04-10T17:32:28.941Z,3.35
2023-04-10T17:36:32.136Z,3.72
2023-04-10T17:40:33.857Z,3.17
2023-04-10T17:44:35.526Z,5.93
2023-04-10T17:48:39.076Z,4.93
2023-04-10T17:52:40.862Z,4.35
2023-04-10T17:56:43.091Z,3.55
2023-04-10T18:00:46.444Z,3.10
2023-04-10T18:04:48.084Z,2.67
2023-04-10T18:08:50.319Z,5.20
2023-04-10T18:12:52.801Z,2.90
2023-04-10T18:16:54.601Z,2.90
2023-04-10T18:20:56.350Z,3.65
2023-04-10T18:24:58.064Z,8.40
2023-04-10T18:29:00.870Z,2.85
2023-04-10T18:33:05.630Z,3.03
2023-04-10T18:37:09.838Z,5.05
2023-04-10T18:41:11.904Z,6.85
2023-04-10T18:45:14.176Z,5.20
2023-04-10T18:49:16.116Z,4.07
2023-04-10T18:53:17.815Z,3.67
2023-04-10T18:57:19.506Z,2.30
2023-04-10T19:01:21.377Z,3.50
2023-04-10T19:05:23.157Z,3.90
2023-04-10T19:09:24.912Z,4.00
2023-04-10T19:13:26.843Z,2.35
2023-04-10T19:17:28.649Z,2.85
2023-04-10T19:21:31.588Z,4.07
2023-04-10T19:25:33.651Z,2.72
2023-04-10T19:29:35.523Z,3.40
2023-04-10T19:33:37.179Z,6.03
2023-04-10T19:37:38.979Z,2.88
2023-04-10T19:41:42.266Z,6.72
2023-04-10T19:45:44.214Z,2.72
2023-04-10T19:49:45.964Z,4.93
2023-04-10T19:53:47.719Z,3.10
2023-04-10T19:57:50.050Z,4.00
2023-04-10T20:01:51.914Z,5.28
2023-04-10T20:05:53.691Z,5.55
2023-04-10T20:09:55.440Z,6.55
2023-04-10T20:13:57.611Z,4.38
2023-04-10T20:17:59.453Z,5.03
2023-04-10T20:22:02.363Z,5.60
2023-04-10T20:26:04.406Z,5.72
2023-04-10T20:30:06.885Z,6.43
2023-04-10T20:34:08.597Z,4.40
2023-04-10T20:38:10.476Z,4.30
2023-04-10T20:42:12.250Z,4.45
2023-04-10T20:46:14.098Z,4.03
2023-04-10T20:50:16.110Z,2.72
2023-04-10T20:54:19.079Z,3.67
2023-04-10T21:02:23.070Z,1.60
2023-04-10T21:06:25.131Z,2.70
2023-04-10T21:10:26.986Z,6.18
2023-04-10T21:14:28.716Z,2.85
2023-04-10T21:18:30.677Z,5.43
2023-04-10T21:22:32.917Z,1.80
2023-04-10T21:26:34.732Z,3.60
2023-04-10T21:30:36.372Z,7.20
2023-04-10T21:34:38.121Z,3.60
2023-04-10T21:38:39.784Z,4.45
2023-04-10T21:42:41.525Z,4.78
2023-04-10T21:46:43.235Z,5.47
2023-04-10T21:50:44.923Z,3.05
2023-04-10T21:54:46.609Z,6.22
2023-04-10T21:58:48.324Z,3.67
2023-04-10T22:02:50.884Z,7.38
2023-04-10T22:06:52.719Z,2.00
2023-04-10T22:10:54.869Z,3.33
2023-04-10T22:14:56.573Z,5.05
2023-04-10T22:18:58.699Z,7.00
2023-04-10T22:23:03.368Z,1.67
2023-04-10T22:27:05.050Z,2.08
2023-04-10T22:31:06.961Z,5.13
2023-04-10T22:35:08.790Z,5.72
2023-04-10T22:39:10.554Z,1.83
2023-04-10T22:43:13.174Z,2.85
2023-04-10T22:47:14.864Z,2.67
2023-04-10T22:51:16.797Z,3.60
2023-04-10T22:55:18.621Z,2.42
2023-04-10T22:59:20.658Z,3.15
2023-04-10T23:03:22.384Z,5.28
2023-04-10T23:07:25.694Z,3.28
2023-04-10T23:11:27.378Z,2.78
2023-04-10T23:15:29.102Z,3.95
2023-04-10T23:19:30.909Z,5.25
2023-04-10T23:23:33.035Z,2.72
2023-04-10T23:27:34.713Z,4.85
2023-04-10T23:31:36.437Z,2.53
2023-04-10T23:35:38.209Z,5.55
2023-04-10T23:39:39.902Z,2.33
2023-04-10T23:43:41.597Z,3.72
2023-04-10T23:47:43.345Z,14.50
2023-04-10T23:51:45.426Z,7.07
2023-04-10T23:55:47.146Z,10.05
2023-04-10T23:59:49.368Z,5.00
